Time;durP1;ratioP1;P1;durP2;ratioP2;P2;SDS_P1;SDS_P2;PMS_P1;PMS_P2;Temp;Humidity;BMP_temperature;BMP_pressure;BME280_temperature;BME280_humidity;BME280_pressure;Samples;Min_cycle;Max_cycle;Signal;HPM_P1;HPM_P2
2023/08/12 00:02:22;;;;;;;7.47;5.00;;;;;;;18.73;81.67;101677.41;4903151;29;20035;-79
2023/08/12 00:04:48;;;;;;;11.05;6.20;;;;;;;18.69;81.72;101679.09;4892879;29;20036;-78
2023/08/12 00:07:13;;;;;;;6.00;4.68;;;;;;;18.68;81.04;101669.34;4872087;29;20157;-78
2023/08/12 00:09:39;;;;;;;8.70;5.50;;;;;;;18.69;81.29;101675.59;4905595;29;20032;-78
2023/08/12 00:12:05;;;;;;;7.72;4.20;;;;;;;18.67;81.53;101677.81;4892739;29;20051;-78
2023/08/12 00:14:30;;;;;;;7.60;3.78;;;;;;;18.66;81.38;101679.72;4905205;29;20037;-77
2023/08/12 00:16:56;;;;;;;4.15;3.75;;;;;;;18.63;81.60;101682.19;4908310;29;20047;-78
2023/08/12 00:19:22;;;;;;;5.30;3.65;;;;;;;18.61;81.71;101677.06;4903222;29;21043;-79
2023/08/12 00:21:48;;;;;;;5.70;4.20;;;;;;;18.58;81.40;101671.44;4889697;29;20044;-78
2023/08/12 00:24:13;;;;;;;7.95;3.70;;;;;;;18.55;82.10;101670.13;4890731;29;20696;-78
2023/08/12 00:26:39;;;;;;;5.38;4.55;;;;;;;18.57;81.47;101675.28;4888686;29;20746;-79
2023/08/12 00:29:04;;;;;;;5.68;3.13;;;;;;;18.56;81.28;101666.34;4889945;29;20039;-78
2023/08/12 00:31:30;;;;;;;5.78;3.70;;;;;;;18.58;81.53;101668.75;4891564;29;20036;-78
2023/08/12 00:33:56;;;;;;;7.80;3.67;;;;;;;18.53;81.59;101665.00;4922161;29;20032;-80
2023/08/12 00:36:21;;;;;;;5.50;2.90;;;;;;;18.52;81.50;101670.75;4892327;29;20048;-78
2023/08/12 00:38:47;;;;;;;5.55;3.58;;;;;;;18.51;81.49;101661.78;4904196;29;20044;-80
2023/08/12 00:41:12;;;;;;;5.05;3.20;;;;;;;18.49;81.38;101660.47;4910335;29;20035;-80
2023/08/12 00:43:38;;;;;;;6.50;3.40;;;;;;;18.47;81.76;101657.25;4903398;29;20049;-79
2023/08/12 00:46:04;;;;;;;4.15;3.03;;;;;;;18.44;81.84;101657.88;4897069;29;20509;-79
2023/08/12 00:48:32;;;;;;;6.07;3.92;;;;;;;18.44;81.69;101657.88;4889968;29;20040;-79
2023/08/12 00:50:58;;;;;;;5.40;3.72;;;;;;;18.44;81.58;101655.16;4886183;29;20135;-78
2023/08/12 00:53:24;;;;;;;5.05;3.60;;;;;;;18.44;81.67;101658.69;4889538;29;20068;-79
2023/08/12 00:55:50;;;;;;;5.50;3.65;;;;;;;18.43;82.06;101653.56;4892121;29;20036;-78
2023/08/12 00:58:16;;;;;;;6.05;3.90;;;;;;;18.41;82.24;101658.47;4890768;29;20042;-78
2023/08/12 01:00:41;;;;;;;7.28;3.90;;;;;;;18.38;82.04;101651.75;4904337;29;20050;-78
2023/08/12 01:03:07;;;;;;;6.38;4.30;;;;;;;18.36;81.98;101650.44;4903500;29;20419;-78
2023/08/12 01:05:33;;;;;;;8.35;3.53;;;;;;;18.36;82.16;101645.03;4886634;29;20051;-79
2023/08/12 01:07:59;;;;;;;6.93;4.63;;;;;;;18.32;82.35;101649.44;4880945;29;20040;-78
2023/08/12 01:10:33;;;;;;;9.35;4.32;;;;;;;18.32;82.31;101652.94;4903820;29;20517;-79
2023/08/12 01:13:24;;;;;;;8.02;4.30;;;;;;;18.32;82.27;101644.00;4901753;29;20621;-78
2023/08/12 01:15:53;;;;;;;5.90;4.07;;;;;;;18.28;82.63;101643.78;4896108;29;20044;-79
2023/08/12 01:18:20;;;;;;;7.68;4.22;;;;;;;18.25;82.58;101642.47;4898663;29;20063;-78
2023/08/12 01:20:47;;;;;;;6.22;3.90;;;;;;;18.25;82.25;101645.19;4886007;29;20160;-79
2023/08/12 01:23:14;;;;;;;5.30;4.10;;;;;;;18.22;82.50;101628.72;4888141;29;20040;-79
2023/08/12 01:25:40;;;;;;;4.95;3.50;;;;;;;18.22;83.07;101639.56;4889247;29;20050;-79
2023/08/12 01:28:07;;;;;;;7.80;4.60;;;;;;;18.19;82.58;101624.69;4923378;29;20094;-79
2023/08/12 01:30:39;;;;;;;6.22;4.18;;;;;;;18.15;82.73;101634.53;4902814;29;20040;-78
2023/08/12 01:33:19;;;;;;;6.75;3.90;;;;;;;18.12;82.72;101635.13;4900851;29;20027;-79
2023/08/12 01:36:10;;;;;;;5.80;3.75;;;;;;;18.09;83.13;101634.94;4888481;29;20284;-78
2023/08/12 01:38:39;;;;;;;6.13;3.83;;;;;;;18.09;83.00;101624.91;4882502;29;20059;-80
2023/08/12 01:41:09;;;;;;;5.00;3.60;;;;;;;18.07;83.38;101615.44;4887826;29;20067;-80
2023/08/12 01:43:35;;;;;;;5.38;3.58;;;;;;;18.03;83.21;101615.25;4870482;29;20847;-78
2023/08/12 01:46:01;;;;;;;5.88;3.38;;;;;;;18.05;82.97;101606.81;4869341;29;20043;-76
2023/08/12 01:48:26;;;;;;;4.80;3.60;;;;;;;18.04;83.48;101616.84;4903877;29;20064;-77
2023/08/12 01:50:52;;;;;;;5.32;3.50;;;;;;;18.03;82.97;101604.41;4885052;29;20087;-77
2023/08/12 01:53:18;;;;;;;4.90;4.07;;;;;;;18.05;83.03;101607.63;4902276;29;20421;-77
2023/08/12 01:55:44;;;;;;;6.78;4.30;;;;;;;18.05;82.73;101607.63;4870900;29;20035;-79
2023/08/12 01:58:10;;;;;;;6.70;3.90;;;;;;;18.08;82.51;101601.59;4886916;29;20040;-76
2023/08/12 02:00:36;;;;;;;5.85;3.60;;;;;;;18.07;83.06;101591.84;4872526;29;20505;-77
2023/08/12 02:03:02;;;;;;;5.78;3.40;;;;;;;18.06;83.06;101603.00;4905830;29;20547;-79
2023/08/12 02:05:28;;;;;;;4.88;3.50;;;;;;;18.01;83.08;101596.56;4901828;29;20043;-77
2023/08/12 02:07:54;;;;;;;5.70;3.45;;;;;;;18.03;82.67;101598.19;4884650;29;20036;-76
2023/08/12 02:10:20;;;;;;;5.10;3.58;;;;;;;18.03;82.75;101598.97;4907710;29;20040;-78
2023/08/12 02:12:45;;;;;;;4.85;3.90;;;;;;;17.99;82.79;101597.97;4906271;29;20056;-78
2023/08/12 02:15:11;;;;;;;4.03;2.92;;;;;;;17.96;83.06;101606.69;4900627;29;20119;-77
2023/08/12 02:17:37;;;;;;;8.18;3.47;;;;;;;17.90;84.07;101603.28;4887812;29;20211;-80
2023/08/12 02:20:04;;;;;;;6.13;3.53;;;;;;;17.87;84.11;101600.34;4876994;29;20040;-79
2023/08/12 02:22:29;;;;;;;4.07;3.20;;;;;;;17.86;84.08;101587.91;4867735;29;20048;-76
2023/08/12 02:24:55;;;;;;;6.65;3.97;;;;;;;17.85;84.12;101587.09;4903538;29;20131;-79
2023/08/12 02:27:21;;;;;;;5.00;3.40;;;;;;;17.85;83.86;101591.72;4887661;29;20039;-79
2023/08/12 02:29:48;;;;;;;4.47;3.30;;;;;;;17.80;84.03;101594.50;4908365;29;20044;-76
2023/08/12 02:32:14;;;;;;;8.10;3.90;;;;;;;17.78;84.47;101602.13;4896109;29;20036;-78
2023/08/12 02:34:40;;;;;;;10.38;3.33;;;;;;;17.71;84.88;101589.78;4905102;29;20047;-79
2023/08/12 02:37:09;;;;;;;7.40;3.45;;;;;;;17.70;84.99;101595.47;4921634;29;20039;-79
2023/08/12 02:39:35;;;;;;;6.35;3.38;;;;;;;17.65;85.52;101593.63;4890330;29;20074;-79
2023/08/12 02:42:05;;;;;;;5.85;3.95;;;;;;;17.62;85.22;101580.69;4893002;29;20036;-77
2023/08/12 02:44:30;;;;;;;5.22;2.80;;;;;;;17.60;85.67;101585.59;4897709;29;20178;-78
2023/08/12 02:46:57;;;;;;;8.20;4.10;;;;;;;17.54;85.90;101580.53;4920559;29;20418;-76
2023/08/12 02:49:22;;;;;;;4.28;3.42;;;;;;;17.53;85.87;101579.75;4901688;29;20611;-78
2023/08/12 02:51:48;;;;;;;4.63;3.47;;;;;;;17.46;85.98;101568.50;4906478;29;20056;-78
2023/08/12 02:54:14;;;;;;;5.28;3.05;;;;;;;17.45;85.91;101577.72;4907692;29;20040;-78
2023/08/12 02:56:40;;;;;;;6.13;3.78;;;;;;;17.43;86.45;101588.84;4889028;29;20047;-77
2023/08/12 02:59:05;;;;;;;4.95;3.15;;;;;;;17.41;86.42;101590.25;4892578;29;20047;-78
2023/08/12 03:01:31;;;;;;;3.63;3.25;;;;;;;17.38;86.84;101578.09;4907668;29;20060;-77
2023/08/12 03:03:56;;;;;;;4.80;3.70;;;;;;;17.37;86.92;101575.69;4894807;29;20434;-78
2023/08/12 03:06:22;;;;;;;3.58;2.53;;;;;;;17.35;86.88;101586.81;4894028;29;20040;-77
2023/08/12 03:08:49;;;;;;;9.70;3.83;;;;;;;17.31;87.78;101588.50;4887534;29;20096;-77
2023/08/12 03:11:16;;;;;;;6.35;3.63;;;;;;;17.25;87.89;101578.03;4907608;29;20048;-79
2023/08/12 03:13:42;;;;;;;3.80;3.22;;;;;;;17.26;87.43;101582.34;4907652;29;20032;-78
2023/08/12 03:16:15;;;;;;;4.28;2.92;;;;;;;17.25;87.33;101578.84;4907280;29;20031;-77
2023/08/12 03:18:43;;;;;;;6.47;3.03;;;;;;;17.24;87.34;101579.94;4887871;29;20028;-75
2023/08/12 03:21:10;;;;;;;4.85;3.35;;;;;;;17.23;87.24;101586.44;4906212;29;20050;-76
2023/08/12 03:23:37;;;;;;;4.57;3.20;;;;;;;17.23;87.39;101578.34;4923090;29;20151;-78
2023/08/12 03:26:04;;;;;;;7.55;4.07;;;;;;;17.19;87.88;101569.97;4906847;29;20071;-79
2023/08/12 03:28:30;;;;;;;7.95;3.90;;;;;;;17.14;88.70;101556.53;4873730;29;20081;-78
2023/08/12 03:30:57;;;;;;;6.00;4.10;;;;;;;17.03;89.03;101549.66;4907516;29;20153;-79
2023/08/12 03:33:24;;;;;;;5.32;3.30;;;;;;;17.03;88.91;101548.88;4894148;29;20043;-80
2023/08/12 03:35:49;;;;;;;6.40;4.10;;;;;;;17.03;89.06;101554.28;4906946;29;20044;-79
2023/08/12 03:38:15;;;;;;;7.75;4.00;;;;;;;17.04;88.81;101559.38;4878424;29;20713;-78
2023/08/12 03:40:42;;;;;;;4.82;4.30;;;;;;;17.04;88.88;101559.38;4888618;29;20050;-77
2023/08/12 03:43:10;;;;;;;3.92;2.90;;;;;;;17.04;88.64;101564.81;4907634;29;20122;-77
2023/08/12 03:45:45;;;;;;;4.70;3.03;;;;;;;17.03;88.68;101560.50;4911030;29;20119;-77
2023/08/12 03:48:13;;;;;;;4.90;3.45;;;;;;;17.06;88.35;101559.09;4919986;29;20032;-77
2023/08/12 03:50:39;;;;;;;7.45;3.45;;;;;;;17.04;88.86;101551.28;4908110;29;20052;-76
2023/08/12 03:53:05;;;;;;;6.63;4.10;;;;;;;17.02;88.61;101542.66;4890908;29;20032;-77
2023/08/12 03:55:34;;;;;;;6.97;3.47;;;;;;;17.02;89.16;101537.25;4894865;29;20055;-76
2023/08/12 03:58:00;;;;;;;8.25;3.67;;;;;;;17.00;89.01;101525.09;4921472;29;20063;-77
2023/08/12 04:00:27;;;;;;;5.10;3.50;;;;;;;16.97;89.20;101526.47;4907778;29;20044;-79
2023/08/12 04:02:57;;;;;;;9.98;4.90;;;;;;;16.97;89.08;101544.63;4898478;29;20489;-77
2023/08/12 04:05:23;;;;;;;7.15;4.20;;;;;;;16.95;89.70;101553.03;4908395;29;20038;-77
2023/08/12 04:07:48;;;;;;;6.60;3.80;;;;;;;16.97;89.53;101550.03;4906595;29;20560;-76
2023/08/12 04:10:14;;;;;;;6.00;3.80;;;;;;;16.97;88.84;101548.13;4895102;29;20038;-78
2023/08/12 04:12:42;;;;;;;8.15;3.15;;;;;;;16.97;88.75;101536.50;4892903;29;20080;-77
2023/08/12 04:15:08;;;;;;;7.50;3.47;;;;;;;16.98;89.19;101551.63;4875195;29;20050;-78
2023/08/12 04:17:34;;;;;;;8.93;3.47;;;;;;;17.00;89.55;101539.44;4878337;29;20602;-77
2023/08/12 04:20:05;;;;;;;7.88;3.70;;;;;;;16.96;89.51;101530.28;4893146;29;20038;-78
2023/08/12 04:22:34;;;;;;;6.30;3.50;;;;;;;16.97;89.31;101531.09;4905101;29;20044;-77
2023/08/12 04:25:00;;;;;;;4.68;2.92;;;;;;;16.95;88.97;101528.69;4890971;29;20044;-78
2023/08/12 04:27:25;;;;;;;8.75;3.70;;;;;;;16.99;89.99;101542.41;4876151;29;20050;-77
2023/08/12 04:29:51;;;;;;;4.93;3.28;;;;;;;16.99;89.63;101556.75;4904901;29;20095;-77
2023/08/12 04:32:18;;;;;;;5.70;4.53;;;;;;;17.02;89.46;101547.25;4900900;23;20045;-72
2023/08/12 04:34:45;;;;;;;5.22;4.32;;;;;;;17.03;90.14;101544.25;4888927;29;20518;-73
2023/08/12 04:37:12;;;;;;;6.40;4.28;;;;;;;17.01;90.05;101551.88;4882494;29;20091;-74
2023/08/12 04:39:38;;;;;;;5.22;3.40;;;;;;;17.06;89.98;101554.47;4892731;29;20037;-73
2023/08/12 04:42:04;;;;;;;8.07;4.72;;;;;;;17.06;89.92;101551.78;4877122;29;20075;-72
2023/08/12 04:44:30;;;;;;;6.47;4.85;;;;;;;17.07;90.36;101556.13;4857743;29;20029;-71
2023/08/12 04:46:56;;;;;;;4.07;3.42;;;;;;;17.09;90.15;101564.72;4885719;29;20088;-72
2023/08/12 04:49:23;;;;;;;3.95;3.28;;;;;;;17.09;90.61;101563.94;4869335;29;20033;-71
2023/08/12 04:51:51;;;;;;;4.65;3.55;;;;;;;17.10;90.63;101555.50;4854833;29;20044;-72
2023/08/12 04:54:17;;;;;;;3.75;3.38;;;;;;;17.12;90.48;101564.13;4873230;29;20040;-70
2023/08/12 04:56:45;;;;;;;5.57;4.25;;;;;;;17.12;90.81;101539.78;4884114;29;20124;-74
2023/08/12 04:59:10;;;;;;;6.30;4.00;;;;;;;17.14;90.37;101550.34;4884815;29;20036;-72
2023/08/12 05:01:38;;;;;;;5.38;3.90;;;;;;;17.12;90.23;101530.84;4886791;29;20092;-72
2023/08/12 05:04:03;;;;;;;6.20;4.28;;;;;;;17.12;90.24;101536.28;4872154;29;20044;-72
2023/08/12 05:06:29;;;;;;;4.95;3.97;;;;;;;17.13;89.71;101527.84;4873540;29;20054;-73
2023/08/12 05:08:56;;;;;;;5.43;3.60;;;;;;;17.18;89.52;101530.47;4880854;29;20533;-73
2023/08/12 05:11:21;;;;;;;6.47;3.90;;;;;;;17.19;89.53;101531.28;4887243;29;20036;-72
2023/08/12 05:13:47;;;;;;;6.00;3.83;;;;;;;17.23;89.88;101553.16;4873525;29;20407;-71
2023/08/12 05:16:13;;;;;;;5.55;3.60;;;;;;;17.22;89.84;101540.75;4875757;29;20909;-71
2023/08/12 05:18:39;;;;;;;4.28;3.20;;;;;;;17.24;89.66;101547.44;4856663;29;20036;-73
2023/08/12 05:21:04;;;;;;;3.92;3.53;;;;;;;17.26;89.20;101541.75;4875966;29;20072;-72
2023/08/12 05:23:30;;;;;;;3.20;2.90;;;;;;;17.27;89.37;101543.34;4856731;29;20088;-72
2023/08/12 05:25:55;;;;;;;3.63;2.65;;;;;;;17.28;89.71;101542.28;4886462;29;20036;-70
2023/08/12 05:28:21;;;;;;;3.83;3.08;;;;;;;17.29;90.06;101535.75;4887860;29;20059;-71
2023/08/12 05:30:48;;;;;;;4.72;3.25;;;;;;;17.30;89.66;101537.34;4872522;29;20092;-73
2023/08/12 05:33:13;;;;;;;6.35;3.95;;;;;;;17.31;90.39;101541.66;4873478;29;20046;-72
2023/08/12 05:35:39;;;;;;;4.90;3.05;;;;;;;17.31;90.46;101553.28;4889397;29;20127;-75
2023/08/12 05:38:05;;;;;;;5.50;4.28;;;;;;;17.33;90.37;101561.13;4885350;29;20387;-70
2023/08/12 05:40:31;;;;;;;6.68;3.17;;;;;;;17.35;90.27;101561.66;4869408;29;20179;-73
2023/08/12 05:42:56;;;;;;;4.72;4.15;;;;;;;17.37;90.92;101564.84;4886980;29;20494;-71
2023/08/12 05:45:22;;;;;;;5.53;3.67;;;;;;;17.37;90.85;101571.06;4886670;29;20089;-72
2023/08/12 05:47:48;;;;;;;5.18;2.70;;;;;;;17.38;90.80;101569.97;4871194;29;20037;-72
2023/08/12 05:50:13;;;;;;;4.78;3.92;;;;;;;17.43;91.14;101569.09;4884986;29;20037;-71
2023/08/12 05:52:39;;;;;;;5.70;3.75;;;;;;;17.41;91.77;101565.88;4867020;29;20159;-72
2023/08/12 05:55:05;;;;;;;5.85;4.10;;;;;;;17.40;91.69;101566.97;4885732;29;20040;-72
2023/08/12 05:57:30;;;;;;;5.13;3.53;;;;;;;17.41;91.67;101565.88;4868212;29;20060;-73
2023/08/12 05:59:59;;;;;;;5.43;3.95;;;;;;;17.41;91.44;101565.88;4868364;29;20072;-73
2023/08/12 06:02:26;;;;;;;4.78;3.53;;;;;;;17.43;91.75;101561.78;4869653;29;20510;-72
2023/08/12 06:04:52;;;;;;;5.00;3.50;;;;;;;17.44;91.67;101565.28;4870932;29;20040;-74
2023/08/12 06:07:18;;;;;;;4.22;3.67;;;;;;;17.43;92.46;101563.69;4898641;29;20040;-71
2023/08/12 06:09:43;;;;;;;6.63;4.05;;;;;;;17.42;92.39;101567.50;4870081;29;20040;-71
2023/08/12 06:12:09;;;;;;;5.15;4.00;;;;;;;17.42;92.43;101565.59;4866093;29;20045;-74
2023/08/12 06:14:37;;;;;;;4.60;4.00;;;;;;;17.44;92.80;101562.56;4899556;29;20037;-74
2023/08/12 06:17:03;;;;;;;6.03;4.70;;;;;;;17.47;92.89;101564.69;4883783;29;20144;-75
2023/08/12 06:19:29;;;;;;;4.65;3.65;;;;;;;17.48;93.19;101560.91;4871735;29;20075;-73
2023/08/12 06:21:55;;;;;;;5.15;4.00;;;;;;;17.50;93.53;101561.41;4887202;29;20064;-72
2023/08/12 06:24:21;;;;;;;6.07;4.72;;;;;;;17.52;93.77;101561.09;4885291;29;20190;-73
2023/08/12 06:26:46;;;;;;;5.93;4.57;;;;;;;17.48;93.33;101555.47;4886791;29;20100;-73
2023/08/12 06:29:13;;;;;;;5.80;5.30;;;;;;;17.51;94.01;101552.16;4870324;29;20033;-73
2023/08/12 06:31:38;;;;;;;9.13;4.53;;;;;;;17.51;93.62;101546.75;4870995;29;20112;-73
2023/08/12 06:34:04;;;;;;;4.75;4.25;;;;;;;17.56;94.06;101549.38;4882558;29;20036;-73
2023/08/12 06:36:29;;;;;;;6.28;5.00;;;;;;;17.58;94.75;101541.75;4883896;29;20059;-73
2023/08/12 06:38:55;;;;;;;6.15;5.22;;;;;;;17.58;94.93;101535.53;4887052;29;20376;-73
2023/08/12 06:41:22;;;;;;;9.70;5.70;;;;;;;17.60;95.41;101542.25;4883312;29;20071;-74
2023/08/12 06:43:47;;;;;;;6.82;5.20;;;;;;;17.64;95.05;101531.63;4884952;29;20116;-75
2023/08/12 06:46:13;;;;;;;7.40;5.13;;;;;;;17.66;95.04;101524.81;4849886;29;20045;-73
2023/08/12 06:48:38;;;;;;;7.38;5.72;;;;;;;17.69;95.16;101535.06;4870623;29;20040;-74
2023/08/12 06:51:10;;;;;;;7.95;6.10;;;;;;;17.73;94.98;101533.38;4882978;29;20048;-72
2023/08/12 06:53:37;;;;;;;6.80;5.28;;;;;;;17.77;95.59;101524.66;4870952;29;20029;-76
2023/08/12 06:56:05;;;;;;;8.85;6.15;;;;;;;17.79;95.21;101528.69;4883126;29;20044;-72
2023/08/12 06:58:31;;;;;;;7.10;6.40;;;;;;;17.84;94.90;101527.78;4884304;29;20040;-72
2023/08/12 07:00:59;;;;;;;9.93;6.53;;;;;;;17.86;95.08;101523.66;4883530;29;20064;-72
2023/08/12 07:03:25;;;;;;;10.80;7.65;;;;;;;17.89;94.87;101528.50;4868154;29;20036;-72
2023/08/12 07:05:51;;;;;;;11.70;7.95;;;;;;;17.94;94.53;101524.88;4883696;29;20471;-72
2023/08/12 07:08:17;;;;;;;13.35;8.55;;;;;;;17.98;95.44;101515.06;4881257;29;20040;-74
2023/08/12 07:10:43;;;;;;;9.25;7.32;;;;;;;18.02;95.87;101499.81;4885124;29;20044;-72
2023/08/12 07:13:10;;;;;;;10.80;7.78;;;;;;;18.05;95.81;101501.91;4883679;29;20044;-75
2023/08/12 07:15:36;;;;;;;9.93;8.40;;;;;;;18.07;95.60;101496.97;4887895;29;20036;-75
2023/08/12 07:18:02;;;;;;;9.10;7.35;;;;;;;18.09;94.89;101499.41;4857440;29;20403;-74
2023/08/12 07:20:27;;;;;;;9.73;6.47;;;;;;;18.11;94.57;101500.69;4880724;29;20115;-75
2023/08/12 07:22:53;;;;;;;12.30;7.05;;;;;;;18.14;94.82;101491.97;4890046;29;20040;-73
2023/08/12 07:25:18;;;;;;;11.35;8.93;;;;;;;18.16;94.90;101495.19;4902790;29;20091;-71
2023/08/12 07:27:44;;;;;;;9.23;6.68;;;;;;;18.24;94.93;101491.75;4888556;29;20036;-73
2023/08/12 07:30:11;;;;;;;11.25;7.75;;;;;;;18.26;95.01;101486.84;4903296;29;20029;-71
2023/08/12 07:32:37;;;;;;;9.25;7.20;;;;;;;18.29;94.99;101488.16;4890667;29;20044;-73
2023/08/12 07:35:05;;;;;;;14.40;8.63;;;;;;;18.31;94.66;101480.50;4871941;29;20521;-74
2023/08/12 07:37:30;;;;;;;17.00;9.82;;;;;;;18.36;94.55;101491.25;4873895;29;20048;-73
2023/08/12 07:39:56;;;;;;;12.35;9.13;;;;;;;18.42;95.14;101481.06;4887405;29;20060;-72
2023/08/12 07:42:21;;;;;;;11.73;9.77;;;;;;;18.48;96.13;101485.28;4888959;29;20568;-72
2023/08/12 07:44:47;;;;;;;13.98;10.35;;;;;;;18.54;95.95;101503.06;4893042;29;20040;-73
2023/08/12 07:47:15;;;;;;;13.30;10.77;;;;;;;18.59;96.37;101505.66;4872829;29;20040;-73
2023/08/12 07:49:41;;;;;;;12.60;11.13;;;;;;;18.62;95.94;101502.31;4879850;29;20366;-75
2023/08/12 07:52:06;;;;;;;14.95;10.77;;;;;;;18.66;95.54;101499.81;4886925;29;20076;-75
2023/08/12 07:54:32;;;;;;;17.50;11.15;;;;;;;18.71;95.90;101500.56;4906718;29;20573;-72
2023/08/12 07:56:58;;;;;;;11.40;9.10;;;;;;;18.73;95.58;101498.31;4890761;29;20028;-71
2023/08/12 07:59:25;;;;;;;14.35;10.13;;;;;;;18.77;95.25;101493.91;4871207;29;20054;-71
2023/08/12 08:01:51;;;;;;;10.57;8.57;;;;;;;18.78;94.60;101487.34;4888904;29;20033;-72
2023/08/12 08:04:17;;;;;;;13.05;9.80;;;;;;;18.82;94.13;101493.75;4871205;29;20036;-71
2023/08/12 08:06:43;;;;;;;10.95;8.57;;;;;;;18.88;94.75;101496.38;4872625;29;20081;-71
2023/08/12 08:09:09;;;;;;;11.48;9.27;;;;;;;18.92;94.78;101505.50;4887807;29;20052;-72
2023/08/12 08:11:35;;;;;;;15.73;11.35;;;;;;;18.88;94.90;101499.88;4859657;29;20047;-71
2023/08/12 08:14:01;;;;;;;13.48;9.32;;;;;;;18.89;94.19;101500.69;4873478;29;20032;-72
2023/08/12 08:16:27;;;;;;;10.73;9.63;;;;;;;18.91;94.36;101501.19;4887344;29;20123;-73
2023/08/12 08:18:53;;;;;;;12.73;10.60;;;;;;;18.95;94.62;101494.81;4874368;29;20144;-72
2023/08/12 08:21:19;;;;;;;17.27;10.75;;;;;;;19.02;94.60;101502.53;4872724;29;20792;-73
2023/08/12 08:23:45;;;;;;;12.50;11.15;;;;;;;19.01;94.31;101490.88;4875989;29;20040;-72
2023/08/12 08:26:12;;;;;;;13.40;11.18;;;;;;;19.08;94.85;101495.88;4889734;29;20115;-71
2023/08/12 08:28:38;;;;;;;13.88;10.25;;;;;;;19.15;94.20;101493.53;4855508;29;20033;-75
2023/08/12 08:31:04;;;;;;;15.18;10.70;;;;;;;19.14;94.40;101491.94;4887389;29;20674;-71
2023/08/12 08:33:29;;;;;;;14.52;10.60;;;;;;;19.14;94.32;101497.38;4888882;29;20236;-72
2023/08/12 08:35:55;;;;;;;12.85;10.07;;;;;;;19.18;94.15;101497.56;4872242;29;20044;-72
2023/08/12 08:38:21;;;;;;;12.68;10.55;;;;;;;19.20;94.37;101492.63;4882934;29;20561;-73
2023/08/12 08:40:50;;;;;;;15.52;11.70;;;;;;;19.24;94.43;101494.41;4888326;29;20044;-72
2023/08/12 08:43:22;;;;;;;14.18;10.88;;;;;;;19.29;94.25;101486.13;4871396;29;20052;-72
2023/08/12 08:45:49;;;;;;;;;;;;;;;19.36;95.12;101482.97;4873211;29;20040;-73
2023/08/12 08:48:14;;;;;;;12.50;11.20;;;;;;;19.35;93.93;101493.03;4885765;29;19923;-74
2023/08/12 08:50:42;;;;;;;18.15;10.48;;;;;;;19.37;93.19;101492.72;4872707;29;20049;-71
2023/08/12 08:53:08;;;;;;;12.07;9.63;;;;;;;19.38;93.49;101491.63;4887209;29;20040;-71
2023/08/12 08:55:34;;;;;;;11.82;9.73;;;;;;;19.39;93.08;101492.41;4888377;29;20040;-72
2023/08/12 08:57:59;;;;;;;14.75;11.65;;;;;;;19.44;93.98;101489.56;4872041;29;20051;-73
2023/08/12 09:00:26;;;;;;;14.10;10.75;;;;;;;19.44;93.25;101479.53;4855800;29;20124;-73
2023/08/12 09:02:54;;;;;;;15.02;11.55;;;;;;;19.54;94.25;101486.59;4887705;29;20051;-72
2023/08/12 09:05:20;;;;;;;19.10;12.05;;;;;;;19.54;93.40;101486.59;4874699;29;20123;-71
2023/08/12 09:07:49;;;;;;;11.45;9.85;;;;;;;19.57;93.20;101488.66;4886718;29;20048;-71
2023/08/12 09:10:17;;;;;;;13.77;11.18;;;;;;;19.62;93.02;101480.41;4885739;29;20044;-74
2023/08/12 09:12:43;;;;;;;13.32;10.88;;;;;;;19.66;92.81;101475.97;4885980;29;21228;-72
2023/08/12 09:15:09;;;;;;;10.35;9.25;;;;;;;19.70;92.40;101466.06;4870814;29;20565;-73
2023/08/12 09:17:35;;;;;;;12.48;10.85;;;;;;;19.73;93.05;101470.88;4872340;29;20193;-72
2023/08/12 09:20:01;;;;;;;12.45;10.27;;;;;;;19.76;92.23;101475.69;4887317;29;20115;-72
2023/08/12 09:22:27;;;;;;;16.15;13.27;;;;;;;19.83;93.13;101472.50;4872196;29;20124;-72
2023/08/12 09:24:57;;;;;;;17.02;12.40;;;;;;;19.88;92.97;101475.91;4858165;29;20041;-72
2023/08/12 09:27:24;;;;;;;15.05;12.70;;;;;;;19.94;93.11;101473.03;4872047;29;20041;-73
2023/08/12 09:29:50;;;;;;;12.60;10.93;;;;;;;19.97;93.12;101472.41;4891201;29;20032;-71
2023/08/12 09:32:19;;;;;;;14.43;12.20;;;;;;;19.96;91.91;101470.81;4901073;29;20402;-73
2023/08/12 09:34:53;;;;;;;14.68;10.80;;;;;;;19.97;92.32;101475.91;4871761;29;20047;-73
2023/08/12 09:37:19;;;;;;;12.63;10.07;;;;;;;19.98;91.46;101471.28;4875649;29;20267;-72
2023/08/12 09:39:47;;;;;;;12.20;10.93;;;;;;;20.01;91.98;101474.19;4856203;29;20510;-73
2023/08/12 09:42:13;;;;;;;15.18;11.68;;;;;;;20.02;92.78;101475.78;4886636;29;20029;-71
2023/08/12 09:44:40;;;;;;;14.85;11.73;;;;;;;20.05;92.95;101485.22;4888234;29;20043;-73
2023/08/12 09:47:06;;;;;;;14.85;10.82;;;;;;;20.04;92.52;101475.47;4869039;29;20047;-72
2023/08/12 09:49:32;;;;;;;12.73;10.82;;;;;;;20.07;92.46;101474.84;4868671;29;20059;-72
2023/08/12 09:51:58;;;;;;;12.98;11.02;;;;;;;20.12;92.33;101472.00;4886568;29;20377;-73
2023/08/12 09:54:26;;;;;;;12.30;11.00;;;;;;;20.12;92.31;101477.44;4886175;29;20040;-74
2023/08/12 09:56:56;;;;;;;13.93;11.43;;;;;;;20.18;93.17;101470.69;4901967;29;20080;-71
2023/08/12 09:59:23;;;;;;;16.45;13.18;;;;;;;20.17;92.60;101472.63;4867047;29;20077;-71
2023/08/12 10:01:53;;;;;;;16.40;12.23;;;;;;;20.26;93.24;101463.69;4870127;29;20056;-72
2023/08/12 10:04:24;;;;;;;13.15;11.27;;;;;;;20.34;93.33;101463.72;4886595;29;20037;-72
2023/08/12 10:06:49;;;;;;;16.33;13.10;;;;;;;20.39;93.82;101463.56;4857266;29;20061;-74
2023/08/12 10:09:16;;;;;;;17.52;13.30;;;;;;;20.48;93.69;101462.78;4879449;29;20094;-72
2023/08/12 10:11:43;;;;;;;15.65;12.00;;;;;;;20.47;92.82;101461.19;4869485;29;20119;-71
2023/08/12 10:14:09;;;;;;;17.02;11.90;;;;;;;20.52;92.45;101458.28;4870794;29;20123;-74
2023/08/12 10:16:36;;;;;;;18.33;12.73;;;;;;;20.58;92.51;101457.03;4885457;29;20510;-72
2023/08/12 10:19:05;;;;;;;16.00;12.45;;;;;;;20.63;92.27;101454.16;4870428;29;20044;-73
2023/08/12 10:21:31;;;;;;;14.85;10.45;;;;;;;20.69;91.55;101452.88;4885371;29;20045;-74
2023/08/12 10:24:00;;;;;;;14.30;11.30;;;;;;;20.80;90.95;101448.72;4861211;29;20044;-73
2023/08/12 10:26:27;;;;;;;15.93;11.52;;;;;;;20.88;90.49;101449.81;4901188;29;20072;-73
2023/08/12 10:28:54;;;;;;;17.20;10.02;;;;;;;20.94;89.79;101454.78;4882019;29;20033;-72
2023/08/12 10:31:20;;;;;;;13.43;10.85;;;;;;;20.91;88.50;101449.97;4851930;29;20502;-72
2023/08/12 10:33:49;;;;;;;11.00;9.57;;;;;;;20.90;87.18;101440.22;4868650;29;20051;-75
2023/08/12 10:36:15;;;;;;;12.27;8.38;;;;;;;20.91;88.92;101436.34;4870519;29;20036;-71
2023/08/12 10:38:41;;;;;;;12.80;9.20;;;;;;;20.89;89.05;101452.22;4883247;29;20037;-72
2023/08/12 10:41:24;;;;;;;12.13;9.65;;;;;;;20.88;90.05;101445.19;4886562;29;20048;-72
2023/08/12 10:43:55;;;;;;;10.05;7.93;;;;;;;20.90;91.06;101447.56;4870542;29;20095;-73
2023/08/12 10:46:23;;;;;;;10.45;8.40;;;;;;;20.91;91.64;101430.91;4857956;29;20044;-72
2023/08/12 10:49:02;;;;;;;10.95;8.73;;;;;;;20.93;91.48;101428.69;4885400;29;20047;-73
2023/08/12 10:51:47;;;;;;;15.38;10.27;;;;;;;20.99;91.89;101423.84;4884035;29;20517;-72
2023/08/12 10:54:31;;;;;;;11.85;8.88;;;;;;;20.98;87.87;101422.25;4875601;29;20029;-74
2023/08/12 10:57:10;;;;;;;14.43;10.68;;;;;;;21.03;88.43;101413.91;4885202;29;20174;-72
2023/08/12 10:59:45;;;;;;;11.63;9.25;;;;;;;21.20;87.31;101413.88;4875939;29;20397;-75
2023/08/12 11:02:28;;;;;;;14.57;9.85;;;;;;;21.29;85.35;101405.72;4880802;29;20158;-72
2023/08/12 11:04:57;;;;;;;13.70;7.97;;;;;;;21.35;84.54;101409.06;4872514;29;20052;-73
2023/08/12 11:07:32;;;;;;;11.25;8.30;;;;;;;21.41;83.88;101397.66;4887995;29;20052;-75
2023/08/12 11:10:03;;;;;;;11.60;8.35;;;;;;;21.46;84.46;101402.91;4889404;29;20029;-70
2023/08/12 11:12:34;;;;;;;10.40;7.00;;;;;;;21.53;84.96;101411.38;4903059;29;20143;-72
2023/08/12 11:15:01;;;;;;;;;;;;;;;21.59;84.56;101408.47;4890620;29;20633;-71
2023/08/12 11:17:34;;;;;;;6.70;4.93;;;;;;;21.57;81.26;101400.63;4871167;29;20381;-72
2023/08/12 11:20:04;;;;;;;7.03;4.93;;;;;;;21.51;81.33;101408.19;4871728;29;20045;-74
2023/08/12 11:22:36;;;;;;;7.10;5.47;;;;;;;21.50;83.65;101406.59;4875250;29;20068;-73